TimeHST,TemperatureF,Dew PointF,Humidity,Sea Level PressureIn,VisibilityMPH,Wind Direction,Wind SpeedMPH,Gust SpeedMPH,PrecipitationIn,Events,Conditions,WindDirDegrees,DateUTC
12:05 AM,39.2,37.4,93,30.10,10.0,ENE,5.8,-,N/A,,Overcast,60,2012-11-30 10:05:00
12:56 AM,39.9,37.9,93,30.11,10.0,ENE,4.6,-,N/A,,Overcast,70,2012-11-30 10:56:00
1:56 AM,39.0,37.0,93,30.11,10.0,ENE,6.9,-,N/A,,Overcast,70,2012-11-30 11:56:00
2:56 AM,39.0,37.0,93,30.11,10.0,East,9.2,-,N/A,,Overcast,80,2012-11-30 12:56:00
3:56 AM,39.0,37.0,93,30.12,10.0,ENE,4.6,-,N/A,,Overcast,70,2012-11-30 13:56:00
4:15 AM,39.2,37.4,93,30.12,10.0,ENE,6.9,-,N/A,,Overcast,70,2012-11-30 14:15:00
4:56 AM,39.0,37.0,93,30.14,10.0,ENE,5.8,-,N/A,,Overcast,70,2012-11-30 14:56:00
5:56 AM,39.0,37.0,93,30.14,10.0,NE,5.8,-,N/A,,Overcast,50,2012-11-30 15:56:00
6:56 AM,39.0,36.0,89,30.15,10.0,Calm,Calm,-,N/A,,Overcast,0,2012-11-30 16:56:00
7:56 AM,39.0,37.0,93,30.16,10.0,North,3.5,-,N/A,,Overcast,10,2012-11-30 17:56:00
8:56 AM,37.9,37.0,97,30.16,10.0,North,6.9,-,N/A,,Overcast,10,2012-11-30 18:56:00
9:09 AM,37.4,35.6,93,30.15,10.0,North,6.9,-,N/A,,Mostly Cloudy,10,2012-11-30 19:09:00
9:22 AM,37.4,35.6,93,30.15,10.0,North,4.6,-,N/A,,Scattered Clouds,10,2012-11-30 19:22:00
9:44 AM,35.6,33.8,93,30.16,10.0,North,6.9,-,N/A,,Mostly Cloudy,10,2012-11-30 19:44:00
9:56 AM,37.0,35.1,93,30.16,10.0,NNE,5.8,-,N/A,,Overcast,20,2012-11-30 19:56:00
10:06 AM,37.4,35.6,93,30.16,10.0,NNE,6.9,-,N/A,,Overcast,30,2012-11-30 20:06:00
10:56 AM,39.0,37.0,93,30.18,10.0,North,5.8,-,N/A,,Overcast,360,2012-11-30 20:56:00
11:56 AM,39.0,37.0,93,30.19,10.0,NNE,5.8,-,N/A,,Overcast,20,2012-11-30 21:56:00
12:54 PM,39.2,37.4,93,30.19,10.0,NE,5.8,-,N/A,,Overcast,50,2012-11-30 22:54:00
12:56 PM,39.9,37.0,89,30.19,10.0,ENE,5.8,-,N/A,,Overcast,60,2012-11-30 22:56:00
1:52 PM,39.2,37.4,93,30.19,10.0,NNE,4.6,-,N/A,,Overcast,20,2012-11-30 23:52:00
1:56 PM,39.9,37.9,93,30.19,10.0,North,5.8,-,N/A,,Overcast,10,2012-11-30 23:56:00
2:56 PM,39.9,37.9,93,30.19,10.0,North,5.8,-,N/A,,Scattered Clouds,360,2012-12-01 00:56:00
3:38 PM,39.2,37.4,93,30.19,10.0,NNE,8.1,-,N/A,,Mostly Cloudy,20,2012-12-01 01:38:00
3:56 PM,39.9,37.0,89,30.20,10.0,NNE,5.8,-,N/A,,Mostly Cloudy,20,2012-12-01 01:56:00
4:34 PM,39.2,37.4,93,30.19,10.0,North,6.9,-,N/A,,Mostly Cloudy,360,2012-12-01 02:34:00
4:56 PM,39.0,37.0,93,30.20,10.0,North,8.1,-,N/A,,Overcast,350,2012-12-01 02:56:00
5:06 PM,37.4,37.4,100,30.20,2.5,NNW,8.1,-,N/A,,Overcast,340,2012-12-01 03:06:00
5:22 PM,37.4,37.4,100,30.20,1.2,North,6.9,-,N/A,,Overcast,360,2012-12-01 03:22:00
5:25 PM,37.4,37.4,100,30.20,1.0,North,8.1,-,N/A,,Mist,360,2012-12-01 03:25:00
5:36 PM,37.4,37.4,100,30.20,1.5,North,6.9,-,N/A,,Overcast,360,2012-12-01 03:36:00
5:39 PM,37.4,37.4,100,30.21,-9999.0,North,5.8,-,N/A,,Overcast,360,2012-12-01 03:39:00
5:46 PM,37.4,37.4,100,30.21,1.5,North,6.9,-,N/A,,Overcast,350,2012-12-01 03:46:00
5:56 PM,37.0,37.0,100,30.22,1.2,NNW,5.8,-,N/A,,Overcast,340,2012-12-01 03:56:00
5:59 PM,37.4,37.4,100,30.21,1.8,NNW,5.8,-,N/A,,Overcast,330,2012-12-01 03:59:00
6:03 PM,37.4,37.4,100,30.21,-9999.0,NNW,6.9,-,N/A,,Overcast,330,2012-12-01 04:03:00
6:12 PM,37.4,37.4,100,30.22,-9999.0,NNW,5.8,-,N/A,,Overcast,340,2012-12-01 04:12:00
6:56 PM,37.9,37.9,100,30.23,10.0,North,6.9,-,N/A,,Overcast,360,2012-12-01 04:56:00
7:56 PM,37.9,36.0,93,30.23,10.0,North,6.9,-,N/A,,Mostly Cloudy,10,2012-12-01 05:56:00
8:07 PM,37.4,37.4,100,30.24,10.0,North,4.6,-,N/A,,Overcast,360,2012-12-01 06:07:00
8:56 PM,37.9,37.0,97,30.25,10.0,North,8.1,-,N/A,,Overcast,360,2012-12-01 06:56:00
9:56 PM,37.9,37.0,97,30.26,10.0,North,9.2,-,N/A,,Mostly Cloudy,360,2012-12-01 07:56:00
10:24 PM,39.2,37.4,93,30.26,10.0,North,8.1,-,N/A,,Overcast,360,2012-12-01 08:24:00
10:56 PM,39.0,37.0,93,30.27,10.0,North,9.2,-,N/A,,Overcast,350,2012-12-01 08:56:00
11:56 PM,39.0,36.0,89,30.30,10.0,NNW,5.8,-,N/A,Rain,Light Rain,340,2012-12-01 09:56:00